createdAt,value
2023-01-10T00:00:20.352Z,90.92
2023-01-10T00:05:20.256Z,90.37
2023-01-10T00:10:20.326Z,90.10
2023-01-10T00:15:20.137Z,90.16
2023-01-10T00:20:20.128Z,90.67
2023-01-10T00:25:20.051Z,90.26
2023-01-10T00:30:19.965Z,90.61
2023-01-10T00:35:19.930Z,90.41
2023-01-10T00:40:19.932Z,90.06
2023-01-10T00:45:19.831Z,89.85
2023-01-10T00:50:19.949Z,89.85
2023-01-10T00:55:19.905Z,90.20
2023-01-10T01:00:19.645Z,89.23
2023-01-10T01:05:20.782Z,89.54
2023-01-10T01:10:19.546Z,90.20
2023-01-10T01:15:19.628Z,89.79
2023-01-10T01:20:19.437Z,89.62
2023-01-10T01:25:19.406Z,89.73
2023-01-10T01:30:19.306Z,90.55
2023-01-10T01:35:19.259Z,89.83
2023-01-10T01:40:19.220Z,90.14
2023-01-10T01:45:19.157Z,89.62
2023-01-10T01:50:19.194Z,89.94
2023-01-10T01:55:19.052Z,89.62
2023-01-10T02:00:19.018Z,89.52
2023-01-10T02:05:19.065Z,89.94
2023-01-10T02:10:18.905Z,89.28
2023-01-10T02:15:18.851Z,89.48
2023-01-10T02:20:18.808Z,88.86
2023-01-10T02:25:18.724Z,89.07
2023-01-10T02:30:18.682Z,88.14
2023-01-10T02:35:18.754Z,88.35
2023-01-10T02:40:18.624Z,89.32
2023-01-10T02:45:18.568Z,88.39
2023-01-10T02:50:18.441Z,88.80
2023-01-10T02:55:18.410Z,88.12
2023-01-10T03:00:18.345Z,87.81
2023-01-10T03:05:18.282Z,87.60
2023-01-10T03:10:18.223Z,87.92
2023-01-10T03:15:18.192Z,88.22
2023-01-10T03:20:18.115Z,88.74
2023-01-10T03:25:18.181Z,89.05
2023-01-10T03:30:18.056Z,88.74
2023-01-10T03:35:18.137Z,88.02
2023-01-10T03:40:17.920Z,87.66
2023-01-10T03:45:17.850Z,86.94
2023-01-10T03:50:17.963Z,86.84
2023-01-10T03:55:17.771Z,86.05
2023-01-10T04:00:17.707Z,86.98
2023-01-10T04:05:17.747Z,87.02
2023-01-10T04:10:17.614Z,86.71
2023-01-10T04:15:21.043Z,87.58
2023-01-10T04:20:26.828Z,87.68
2023-01-10T04:25:17.382Z,87.68
2023-01-10T04:30:17.561Z,87.58
2023-01-10T04:35:18.449Z,88.06
2023-01-10T04:40:18.401Z,88.16
2023-01-10T04:45:17.233Z,88.10
2023-01-10T04:50:17.139Z,88.20
2023-01-10T04:55:17.288Z,87.48
2023-01-10T05:00:17.059Z,89.03
2023-01-10T05:05:17.211Z,87.48
2023-01-10T05:10:16.957Z,87.79
2023-01-10T05:15:17.073Z,88.31
2023-01-10T05:20:17.611Z,87.68
2023-01-10T05:25:16.963Z,88.06
2023-01-10T05:30:17.460Z,87.85
2023-01-10T05:35:16.765Z,87.13
2023-01-10T05:40:16.798Z,87.13
2023-01-10T05:45:17.768Z,87.19
2023-01-10T05:50:18.874Z,87.13
2023-01-10T05:55:17.160Z,87.65
2023-01-10T06:00:19.541Z,86.44
2023-01-10T06:05:19.005Z,86.96
2023-01-10T06:10:16.244Z,87.10
2023-01-10T06:15:16.451Z,88.24
2023-01-10T06:20:16.335Z,88.14
2023-01-10T06:25:16.154Z,87.83
2023-01-10T06:30:16.305Z,88.14
2023-01-10T06:35:15.989Z,88.86
2023-01-10T06:40:15.932Z,88.55
2023-01-10T06:45:15.848Z,87.37
2023-01-10T06:50:16.974Z,87.79
2023-01-10T06:55:15.904Z,87.44
2023-01-10T07:00:15.723Z,86.92
2023-01-10T07:05:15.730Z,86.92
2023-01-10T07:10:15.789Z,86.47
2023-01-10T07:15:15.696Z,86.41
2023-01-10T07:20:15.482Z,86.26
2023-01-10T07:25:15.397Z,85.95
2023-01-10T07:30:15.349Z,86.47
2023-01-10T07:35:15.294Z,86.26
2023-01-10T07:40:15.392Z,86.16
2023-01-10T07:45:15.219Z,85.75
2023-01-10T07:50:16.664Z,86.05
2023-01-10T07:55:15.147Z,86.16
2023-01-10T08:00:16.747Z,85.75
2023-01-10T08:05:15.049Z,86.47
2023-01-10T08:10:16.039Z,85.50
2023-01-10T08:15:14.881Z,86.05
2023-01-10T08:20:14.832Z,85.60
2023-01-10T08:25:14.869Z,85.54
2023-01-10T08:30:14.863Z,85.54
2023-01-10T08:35:21.750Z,85.64
2023-01-10T08:40:14.685Z,85.54
2023-01-10T08:45:14.533Z,85.85
2023-01-10T08:50:14.507Z,85.23
2023-01-10T08:55:14.446Z,85.19
2023-01-10T09:00:14.543Z,85.50
2023-01-10T09:05:26.400Z,85.50
2023-01-10T09:10:15.320Z,85.77
2023-01-10T09:15:14.221Z,84.78
2023-01-10T09:20:14.160Z,84.94
2023-01-10T09:25:14.112Z,84.53
2023-01-10T09:30:14.074Z,85.15
2023-01-10T09:35:13.992Z,84.59
2023-01-10T09:40:14.034Z,84.12
2023-01-10T09:45:13.981Z,84.29
2023-01-10T09:50:13.944Z,83.67
2023-01-10T09:55:13.779Z,84.39
2023-01-10T10:00:13.719Z,83.77
2023-01-10T10:05:13.694Z,83.32
2023-01-10T10:10:13.619Z,82.77
2023-01-10T10:15:15.677Z,82.87
2023-01-10T10:20:13.685Z,82.56
2023-01-10T10:25:13.624Z,82.32
2023-01-10T10:30:14.571Z,82.46
2023-01-10T10:35:15.441Z,81.91
2023-01-10T10:40:13.273Z,80.26
2023-01-10T10:45:13.245Z,80.02
2023-01-10T10:50:13.170Z,80.84
2023-01-10T10:55:13.242Z,80.22
2023-01-10T11:00:13.065Z,80.60
2023-01-10T11:05:12.990Z,81.05
2023-01-10T11:10:13.046Z,81.91
2023-01-10T11:15:12.890Z,81.35
2023-01-10T11:20:12.826Z,81.97
2023-01-10T11:25:12.769Z,81.15
2023-01-10T11:30:12.869Z,80.49
2023-01-10T11:35:12.622Z,80.19
2023-01-10T11:40:12.601Z,80.91
2023-01-10T11:45:12.631Z,80.29
2023-01-10T11:50:12.550Z,80.15
2023-01-10T11:55:12.508Z,79.53
2023-01-10T12:00:12.461Z,78.96
2023-01-10T12:05:12.397Z,78.61
2023-01-10T12:10:12.234Z,79.12
2023-01-10T12:15:12.165Z,78.47
2023-01-10T12:20:12.119Z,77.75
2023-01-10T12:25:12.143Z,77.51
2023-01-10T12:30:14.016Z,76.31
2023-01-10T12:35:12.036Z,77.20
2023-01-10T12:40:14.044Z,76.38
2023-01-10T12:45:11.905Z,75.93
2023-01-10T12:50:11.821Z,77.00
2023-01-10T12:55:11.731Z,76.07
2023-01-10T13:00:11.673Z,75.42
2023-01-10T13:05:11.646Z,74.87
2023-01-10T13:10:13.719Z,74.32
2023-01-10T13:15:11.531Z,73.10
2023-01-10T13:20:11.494Z,73.19
2023-01-10T13:25:11.402Z,74.29
2023-01-10T13:30:11.361Z,73.33
2023-01-10T13:35:11.319Z,74.22
2023-01-10T13:40:11.227Z,73.91
2023-01-10T13:45:11.272Z,72.89
2023-01-10T13:50:11.217Z,73.30
2023-01-10T13:55:15.578Z,73.64
2023-01-10T14:00:11.053Z,73.74
2023-01-10T14:05:10.954Z,73.91
2023-01-10T14:10:10.897Z,73.78
2023-01-10T14:15:10.930Z,74.19
2023-01-10T14:20:13.010Z,75.04
2023-01-10T14:25:10.939Z,73.71
2023-01-10T14:30:16.158Z,74.43
2023-01-10T14:35:12.702Z,73.81
2023-01-10T14:40:11.635Z,74.22
2023-01-10T14:45:10.737Z,74.84
2023-01-10T14:50:10.449Z,74.98
2023-01-10T14:55:10.427Z,74.40
2023-01-10T15:00:10.385Z,75.39
2023-01-10T15:05:10.454Z,74.77
2023-01-10T15:10:10.267Z,74.57
2023-01-10T15:15:10.223Z,75.22
2023-01-10T15:20:11.250Z,73.64
2023-01-10T15:25:10.227Z,75.08
2023-01-10T15:30:10.015Z,75.12
2023-01-10T15:35:10.262Z,73.57
2023-01-10T15:40:09.932Z,74.29
2023-01-10T15:45:09.942Z,74.50
2023-01-10T15:50:09.904Z,74.50
2023-01-10T15:55:09.814Z,74.91
2023-01-10T16:00:09.738Z,75.01
2023-01-10T16:05:09.666Z,74.19
2023-01-10T16:10:09.582Z,76.39
2023-01-10T16:15:09.578Z,75.87
2023-01-10T16:20:09.468Z,76.35
2023-01-10T16:25:09.419Z,78.03
2023-01-10T16:30:09.413Z,79.16
2023-01-10T16:35:09.493Z,81.02
2023-01-10T16:40:09.261Z,83.84
2023-01-10T16:45:09.204Z,84.25
2023-01-10T16:50:09.172Z,85.15
2023-01-10T16:55:09.133Z,85.42
2023-01-10T17:00:10.081Z,86.70
2023-01-10T17:05:09.064Z,87.01
2023-01-10T17:10:09.019Z,87.07
2023-01-10T17:15:08.961Z,88.35
2023-01-10T17:20:08.913Z,88.90
2023-01-10T17:25:08.865Z,89.52
2023-01-10T17:30:08.695Z,90.19
2023-01-10T17:35:08.709Z,90.55
2023-01-10T17:40:08.613Z,90.14
2023-01-10T17:45:08.604Z,90.55
2023-01-10T17:50:08.478Z,90.25
2023-01-10T17:55:08.456Z,90.86
2023-01-10T18:00:08.395Z,91.28
2023-01-10T18:05:08.306Z,91.28
2023-01-10T18:10:08.253Z,91.42
2023-01-10T18:15:08.252Z,90.76
2023-01-10T18:20:08.161Z,91.83
2023-01-10T18:25:08.134Z,91.69
2023-01-10T18:30:08.037Z,92.10
2023-01-10T18:35:08.040Z,92.46
2023-01-10T18:40:08.018Z,92.35
2023-01-10T18:45:08.001Z,92.31
2023-01-10T18:50:07.829Z,92.00
2023-01-10T18:55:07.773Z,92.97
2023-01-10T19:00:07.752Z,93.28
2023-01-10T19:05:07.672Z,92.41
2023-01-10T19:10:07.793Z,92.72
2023-01-10T19:15:07.606Z,92.82
2023-01-10T19:20:07.508Z,93.18
2023-01-10T19:25:07.588Z,93.13
2023-01-10T19:30:07.414Z,93.18
2023-01-10T19:35:07.331Z,92.76
2023-01-10T19:40:07.443Z,92.31
2023-01-10T19:45:07.366Z,92.10
2023-01-10T19:50:07.162Z,91.89
2023-01-10T19:55:07.248Z,91.89
2023-01-10T20:00:07.065Z,92.21
2023-01-10T20:05:07.031Z,91.89
2023-01-10T20:10:07.055Z,92.51
2023-01-10T20:15:06.979Z,92.41
2023-01-10T20:20:06.927Z,92.82
2023-01-10T20:25:06.943Z,92.93
2023-01-10T20:30:06.752Z,92.72
2023-01-10T20:35:06.676Z,93.03
2023-01-10T20:40:06.776Z,93.03
2023-01-10T20:45:06.578Z,92.88
2023-01-10T20:50:06.660Z,93.03
2023-01-10T20:55:06.475Z,92.99
2023-01-10T21:00:06.448Z,92.68
2023-01-10T21:05:06.497Z,93.09
2023-01-10T21:10:06.427Z,92.37
2023-01-10T21:15:06.346Z,92.02
2023-01-10T21:20:06.215Z,91.60
2023-01-10T21:25:06.211Z,91.60
2023-01-10T21:30:06.083Z,91.46
2023-01-10T21:35:06.012Z,91.30
2023-01-10T21:40:06.033Z,91.05
2023-01-10T21:45:05.906Z,90.33
2023-01-10T21:50:05.851Z,90.67
2023-01-10T21:55:05.995Z,91.36
2023-01-10T22:00:05.767Z,91.66
2023-01-10T22:05:05.908Z,91.66
2023-01-10T22:10:05.816Z,92.38
2023-01-10T22:15:05.686Z,92.38
2023-01-10T22:20:05.525Z,92.38
2023-01-10T22:25:05.523Z,92.24
2023-01-10T22:30:05.419Z,92.29
2023-01-10T22:35:05.377Z,92.29
2023-01-10T22:40:06.446Z,91.93
2023-01-10T22:45:05.282Z,92.14
2023-01-10T22:50:05.219Z,92.44
2023-01-10T22:55:05.177Z,92.65
2023-01-10T23:00:05.087Z,92.44
2023-01-10T23:05:05.059Z,92.55
2023-01-10T23:10:04.969Z,93.12
2023-01-10T23:15:05.099Z,92.40
2023-01-10T23:20:05.982Z,91.53
2023-01-10T23:25:04.801Z,91.53
2023-01-10T23:30:04.765Z,90.98
2023-01-10T23:35:04.729Z,91.44
2023-01-10T23:40:04.676Z,91.13
2023-01-10T23:45:04.612Z,89.95
2023-01-10T23:50:04.543Z,89.50
2023-01-10T23:55:04.642Z,89.34
